createdAt,value
2023-03-19T00:02:16.290Z,10.04
2023-03-19T00:04:43.782Z,10.04
2023-03-19T00:07:11.265Z,10.09
2023-03-19T00:09:38.173Z,10.09
2023-03-19T00:12:05.552Z,10.01
2023-03-19T00:14:32.452Z,9.93
2023-03-19T00:16:59.102Z,9.83
2023-03-19T00:19:25.906Z,9.78
2023-03-19T00:21:52.736Z,9.79
2023-03-19T00:24:19.589Z,9.82
2023-03-19T00:26:46.293Z,9.82
2023-03-19T00:29:13.668Z,9.79
2023-03-19T00:31:40.900Z,9.80
2023-03-19T00:34:08.585Z,9.77
2023-03-19T00:36:35.696Z,9.74
2023-03-19T00:39:03.190Z,9.74
2023-03-19T00:41:29.992Z,9.75
2023-03-19T00:43:57.622Z,9.76
2023-03-19T00:46:30.112Z,9.74
2023-03-19T00:48:58.521Z,9.74
2023-03-19T00:51:26.104Z,9.68
2023-03-19T00:53:52.837Z,9.66
2023-03-19T00:56:19.961Z,9.64
2023-03-19T00:58:47.739Z,9.66
2023-03-19T01:01:17.041Z,9.64
2023-03-19T01:03:45.583Z,9.62
2023-03-19T01:06:12.873Z,9.57
2023-03-19T01:08:39.733Z,9.49
2023-03-19T01:11:14.376Z,9.47
2023-03-19T01:13:42.257Z,9.45
2023-03-19T01:16:09.835Z,9.45
2023-03-19T01:18:37.188Z,9.38
2023-03-19T01:21:04.434Z,9.41
2023-03-19T01:23:32.411Z,9.37
2023-03-19T01:25:59.944Z,9.32
2023-03-19T01:28:28.260Z,9.25
2023-03-19T01:31:00.103Z,9.24
2023-03-19T01:33:51.823Z,9.21
2023-03-19T01:36:37.479Z,9.12
2023-03-19T01:39:06.722Z,9.17
2023-03-19T01:41:33.824Z,9.21
2023-03-19T01:44:32.360Z,9.15
2023-03-19T01:47:39.547Z,9.17
2023-03-19T01:50:28.217Z,9.20
2023-03-19T01:53:15.213Z,9.21
2023-03-19T01:55:47.877Z,9.13
2023-03-19T01:58:42.276Z,9.14
2023-03-19T02:01:20.711Z,9.10
2023-03-19T02:03:52.109Z,9.11
2023-03-19T02:06:24.590Z,9.09
2023-03-19T02:08:51.819Z,9.10
2023-03-19T02:11:19.254Z,9.07
2023-03-19T02:13:47.226Z,9.06
2023-03-19T02:16:15.524Z,9.01
2023-03-19T02:18:42.710Z,9.00
2023-03-19T02:21:11.674Z,8.85
2023-03-19T02:24:01.467Z,8.92
2023-03-19T02:26:51.719Z,8.90
2023-03-19T02:29:18.647Z,8.93
2023-03-19T02:31:47.281Z,8.87
2023-03-19T02:34:14.024Z,8.87
2023-03-19T02:36:49.274Z,8.83
2023-03-19T02:39:27.318Z,8.82
2023-03-19T02:41:54.856Z,8.82
2023-03-19T02:44:23.386Z,8.83
2023-03-19T02:46:51.961Z,8.89
2023-03-19T02:49:19.118Z,8.87
2023-03-19T02:51:46.255Z,8.79
2023-03-19T02:54:13.015Z,8.80
2023-03-19T02:56:39.778Z,8.74
2023-03-19T02:59:06.777Z,8.74
2023-03-19T03:01:33.731Z,8.65
2023-03-19T03:04:00.707Z,8.61
2023-03-19T03:06:27.464Z,8.61
2023-03-19T03:08:54.622Z,8.60
2023-03-19T03:11:21.328Z,8.60
2023-03-19T03:13:48.030Z,8.60
2023-03-19T03:16:15.730Z,8.60
2023-03-19T03:18:42.566Z,8.62
2023-03-19T03:21:10.322Z,8.62
2023-03-19T03:23:37.498Z,8.66
2023-03-19T03:26:04.340Z,8.66
2023-03-19T03:28:31.027Z,8.64
2023-03-19T03:30:59.548Z,8.65
2023-03-19T03:33:26.311Z,8.62
2023-03-19T03:35:53.057Z,8.65
2023-03-19T03:38:19.763Z,8.62
2023-03-19T03:40:50.810Z,8.50
2023-03-19T03:43:18.088Z,8.44
2023-03-19T03:45:45.188Z,8.48
2023-03-19T03:48:11.901Z,8.52
2023-03-19T03:50:38.681Z,8.57
2023-03-19T03:53:08.921Z,8.57
2023-03-19T03:55:35.938Z,8.55
2023-03-19T03:58:03.059Z,8.56
2023-03-19T04:00:29.963Z,8.19
2023-03-19T04:02:56.779Z,8.38
2023-03-19T04:05:23.554Z,8.38
2023-03-19T04:07:51.816Z,8.48
2023-03-19T04:10:19.477Z,8.47
2023-03-19T04:12:46.899Z,8.52
2023-03-19T04:15:13.833Z,8.53
2023-03-19T04:17:43.444Z,8.52
2023-03-19T04:20:11.217Z,8.60
2023-03-19T04:22:38.244Z,8.61
2023-03-19T04:25:08.376Z,8.60
2023-03-19T04:27:36.218Z,8.61
2023-03-19T04:30:04.388Z,8.58
2023-03-19T04:32:31.176Z,8.55
2023-03-19T04:34:58.595Z,8.57
2023-03-19T04:37:25.298Z,8.56
2023-03-19T04:39:52.219Z,8.56
2023-03-19T04:42:19.254Z,8.55
2023-03-19T04:44:52.615Z,8.57
2023-03-19T04:47:20.227Z,8.59
2023-03-19T04:49:53.887Z,8.57
2023-03-19T04:52:22.291Z,8.59
2023-03-19T04:54:49.839Z,8.57
2023-03-19T04:57:17.451Z,8.57
2023-03-19T04:59:46.675Z,8.56
2023-03-19T05:02:15.692Z,8.57
2023-03-19T05:04:43.265Z,8.59
2023-03-19T05:07:13.457Z,8.44
2023-03-19T05:09:43.248Z,8.55
2023-03-19T05:12:11.774Z,8.58
2023-03-19T05:14:43.690Z,8.60
2023-03-19T05:17:18.325Z,8.61
2023-03-19T05:20:05.701Z,8.53
2023-03-19T05:22:34.404Z,8.56
2023-03-19T05:25:01.232Z,8.60
2023-03-19T05:27:29.342Z,8.62
2023-03-19T05:30:06.436Z,8.61
2023-03-19T05:32:51.329Z,8.59
2023-03-19T05:35:33.719Z,8.55
2023-03-19T05:38:02.398Z,8.61
2023-03-19T05:40:29.350Z,8.45
2023-03-19T05:42:58.417Z,8.28
2023-03-19T05:45:28.169Z,8.27
2023-03-19T05:47:58.354Z,8.06
2023-03-19T05:50:25.909Z,8.26
2023-03-19T05:53:09.233Z,8.39
2023-03-19T05:55:39.233Z,8.41
2023-03-19T05:58:08.898Z,8.46
2023-03-19T06:01:04.922Z,8.39
2023-03-19T06:04:37.330Z,8.48
2023-03-19T06:07:04.531Z,8.50
2023-03-19T06:09:31.705Z,8.51
2023-03-19T06:11:58.544Z,8.48
2023-03-19T06:14:52.127Z,8.42
2023-03-19T06:17:37.441Z,8.33
2023-03-19T06:20:08.053Z,8.37
2023-03-19T06:22:35.018Z,8.26
2023-03-19T06:25:01.949Z,8.15
2023-03-19T06:27:30.975Z,8.04
2023-03-19T06:30:10.175Z,8.05
2023-03-19T06:32:37.328Z,8.13
2023-03-19T06:35:09.092Z,8.17
2023-03-19T06:37:36.712Z,8.19
2023-03-19T06:40:05.168Z,8.33
2023-03-19T06:42:32.311Z,8.43
2023-03-19T06:44:59.135Z,8.49
2023-03-19T06:47:26.336Z,8.44
2023-03-19T06:49:52.993Z,8.56
2023-03-19T06:52:19.765Z,8.63
2023-03-19T06:54:46.758Z,8.74
2023-03-19T06:57:13.520Z,8.83
2023-03-19T06:59:40.319Z,8.87
2023-03-19T07:02:08.997Z,8.89
2023-03-19T07:04:36.758Z,8.80
2023-03-19T07:07:05.933Z,8.82
2023-03-19T07:09:32.934Z,8.80
2023-03-19T07:11:59.725Z,8.91
2023-03-19T07:14:26.576Z,8.96
2023-03-19T07:16:53.398Z,8.88
2023-03-19T07:19:20.394Z,8.59
2023-03-19T07:21:47.205Z,8.66
2023-03-19T07:24:14.002Z,8.65
2023-03-19T07:26:40.876Z,8.59
2023-03-19T07:29:09.730Z,8.73
2023-03-19T07:31:47.573Z,8.85
2023-03-19T07:34:17.223Z,9.02
2023-03-19T07:36:45.000Z,9.04
2023-03-19T07:39:11.849Z,9.07
2023-03-19T07:41:38.702Z,8.79
2023-03-19T07:44:06.490Z,8.79
2023-03-19T07:46:33.312Z,8.79
2023-03-19T07:49:00.103Z,8.88
2023-03-19T07:51:27.385Z,9.00
2023-03-19T07:53:54.216Z,9.01
2023-03-19T07:56:21.528Z,9.05
2023-03-19T07:58:48.523Z,8.99
2023-03-19T08:01:15.604Z,9.07
2023-03-19T08:03:42.342Z,9.08
2023-03-19T08:06:09.074Z,8.78
2023-03-19T08:08:36.752Z,8.58
2023-03-19T08:11:04.054Z,8.87
2023-03-19T08:13:31.824Z,8.80
2023-03-19T08:16:01.360Z,9.00
2023-03-19T08:18:28.494Z,9.10
2023-03-19T08:20:55.370Z,9.00
2023-03-19T08:23:22.304Z,8.73
2023-03-19T08:25:51.898Z,8.83
2023-03-19T08:28:18.734Z,8.96
2023-03-19T08:30:46.192Z,9.14
2023-03-19T08:33:13.146Z,9.30
2023-03-19T08:35:40.167Z,9.37
2023-03-19T08:38:07.180Z,9.39
2023-03-19T08:40:34.443Z,9.40
2023-03-19T08:43:01.489Z,9.41
2023-03-19T08:45:28.340Z,9.44
2023-03-19T08:47:55.677Z,9.44
2023-03-19T08:50:22.512Z,9.45
2023-03-19T08:52:49.524Z,9.46
2023-03-19T08:55:17.288Z,9.48
2023-03-19T08:57:44.030Z,9.50
2023-03-19T09:00:11.381Z,9.43
2023-03-19T09:02:38.292Z,9.42
2023-03-19T09:07:53.236Z,9.29
2023-03-19T09:10:20.037Z,9.29
2023-03-19T09:12:50.034Z,9.44
2023-03-19T09:15:24.015Z,9.41
2023-03-19T09:17:51.028Z,9.35
2023-03-19T09:20:18.073Z,9.39
2023-03-19T09:22:44.876Z,9.32
2023-03-19T09:25:12.108Z,9.32
2023-03-19T09:27:41.390Z,9.32
2023-03-19T09:30:09.990Z,9.30
2023-03-19T09:32:36.957Z,9.30
2023-03-19T09:35:03.890Z,9.24
2023-03-19T09:37:30.619Z,9.23
2023-03-19T09:39:57.567Z,9.24
2023-03-19T09:42:58.553Z,9.22
2023-03-19T09:45:25.266Z,9.26
2023-03-19T09:47:57.034Z,9.31
2023-03-19T09:50:25.291Z,9.40
2023-03-19T09:53:01.163Z,9.46
2023-03-19T09:55:36.281Z,9.54
2023-03-19T09:58:11.406Z,9.57
2023-03-19T10:00:39.499Z,9.62
2023-03-19T10:03:31.145Z,9.39
2023-03-19T10:06:22.346Z,9.49
2023-03-19T10:09:34.004Z,9.51
2023-03-19T10:12:14.368Z,9.36
2023-03-19T10:15:06.113Z,9.23
2023-03-19T10:17:35.751Z,9.31
2023-03-19T10:20:10.721Z,9.60
2023-03-19T10:22:46.487Z,9.65
2023-03-19T10:25:19.253Z,9.87
2023-03-19T10:27:56.104Z,9.98
2023-03-19T10:30:23.069Z,10.05
2023-03-19T10:33:23.432Z,10.10
2023-03-19T10:35:58.815Z,10.37
2023-03-19T10:38:26.880Z,10.50
2023-03-19T10:41:03.318Z,10.64
2023-03-19T10:43:30.480Z,10.69
2023-03-19T10:46:13.990Z,10.81
2023-03-19T10:48:50.075Z,10.84
2023-03-19T10:51:22.380Z,10.98
2023-03-19T10:53:52.711Z,11.06
2023-03-19T10:56:26.137Z,11.16
2023-03-19T10:59:07.329Z,11.20
2023-03-19T11:01:36.618Z,11.34
2023-03-19T11:04:15.261Z,11.55
2023-03-19T11:07:27.721Z,11.73
2023-03-19T11:09:56.100Z,12.09
2023-03-19T11:13:00.029Z,12.35
2023-03-19T11:16:06.908Z,12.72
2023-03-19T11:19:01.312Z,12.88
2023-03-19T11:21:41.656Z,13.10
2023-03-19T11:24:12.322Z,12.89
2023-03-19T11:26:39.364Z,12.83
2023-03-19T11:29:37.678Z,12.78
2023-03-19T11:32:22.988Z,12.74
2023-03-19T11:35:19.183Z,12.63
2023-03-19T11:49:30.603Z,12.10
2023-03-19T11:52:22.446Z,12.07
2023-03-19T11:55:25.088Z,12.05
2023-03-19T11:58:21.627Z,11.89
2023-03-19T12:00:49.162Z,11.88
2023-03-19T12:03:38.217Z,11.88
2023-03-19T12:06:18.674Z,11.84
2023-03-19T12:08:57.501Z,11.74
2023-03-19T12:11:30.884Z,11.82
2023-03-19T12:14:16.426Z,11.85
2023-03-19T12:17:07.398Z,11.79
2023-03-19T12:19:46.143Z,11.74
2023-03-19T12:22:34.885Z,11.83
2023-03-19T12:25:20.861Z,11.94
2023-03-19T12:27:55.756Z,12.06
2023-03-19T12:30:39.328Z,12.10
2023-03-19T12:33:53.396Z,12.11
2023-03-19T12:36:27.570Z,12.34
2023-03-19T12:39:07.246Z,12.50
2023-03-19T12:41:36.911Z,12.51
2023-03-19T12:44:27.273Z,12.67
2023-03-19T12:47:15.247Z,12.79
2023-03-19T12:49:57.271Z,12.90
2023-03-19T12:52:31.339Z,12.90
2023-03-19T12:55:06.215Z,12.97
2023-03-19T12:57:40.219Z,13.11
2023-03-19T13:00:26.908Z,13.24
2023-03-19T13:03:25.662Z,13.30
2023-03-19T13:05:59.867Z,13.37
2023-03-19T13:08:33.603Z,13.51
2023-03-19T13:11:02.780Z,13.63
2023-03-19T13:13:48.799Z,13.77
2023-03-19T13:16:34.328Z,13.74
2023-03-19T13:19:13.088Z,13.94
2023-03-19T13:21:41.063Z,13.98
2023-03-19T13:24:34.845Z,14.16
2023-03-19T13:27:02.119Z,14.30
2023-03-19T13:29:32.751Z,14.43
2023-03-19T13:32:01.842Z,14.58
2023-03-19T13:42:14.989Z,14.80
2023-03-19T13:44:48.415Z,15.05
2023-03-19T13:47:29.001Z,15.24
2023-03-19T13:53:39.904Z,15.31
2023-03-19T14:00:55.284Z,15.37
2023-03-19T14:04:19.375Z,15.41
2023-03-19T14:08:17.988Z,15.39
2023-03-19T14:21:30.041Z,15.35
2023-03-19T14:24:53.306Z,15.35
2023-03-19T14:27:16.324Z,15.42
2023-03-19T14:29:44.867Z,15.35
2023-03-19T14:32:18.101Z,15.48
2023-03-19T14:34:45.875Z,15.60
2023-03-19T14:37:28.483Z,15.68
2023-03-19T14:40:03.137Z,15.70
2023-03-19T14:42:39.907Z,15.71
2023-03-19T14:45:21.958Z,15.72
2023-03-19T14:48:00.921Z,15.75
2023-03-19T14:50:42.808Z,15.82
2023-03-19T14:53:20.062Z,16.04
2023-03-19T14:55:51.853Z,16.30
2023-03-19T14:58:25.495Z,16.60
2023-03-19T15:00:54.342Z,16.47
2023-03-19T15:03:24.660Z,16.72
2023-03-19T15:06:00.139Z,16.97
2023-03-19T15:08:27.303Z,16.95
2023-03-19T15:11:16.311Z,16.79
2023-03-19T15:14:07.981Z,16.88
2023-03-19T15:17:03.690Z,17.04
2023-03-19T15:19:32.357Z,17.15
2023-03-19T15:22:22.543Z,17.18
2023-03-19T15:24:49.564Z,17.25
2023-03-19T15:27:22.064Z,17.31
2023-03-19T15:29:51.547Z,17.16
2023-03-19T15:32:50.823Z,17.08
2023-03-19T15:35:19.757Z,16.86
2023-03-19T15:37:51.196Z,16.73
2023-03-19T15:40:19.973Z,16.59
2023-03-19T15:42:47.964Z,16.52
2023-03-19T15:45:20.555Z,16.38
2023-03-19T15:47:52.903Z,16.28
2023-03-19T15:50:23.320Z,16.26
2023-03-19T15:52:53.693Z,16.28
2023-03-19T15:55:21.430Z,16.26
2023-03-19T15:57:48.405Z,16.19
2023-03-19T16:00:15.732Z,16.18
2023-03-19T16:02:48.156Z,16.08
2023-03-19T16:05:27.822Z,16.01
2023-03-19T16:07:59.934Z,15.92
2023-03-19T16:10:36.966Z,15.82
2023-03-19T16:13:23.167Z,15.74
2023-03-19T16:15:56.001Z,15.83
2023-03-19T16:18:24.712Z,15.84
2023-03-19T16:21:00.987Z,15.91
2023-03-19T16:23:36.194Z,15.85
2023-03-19T16:26:17.122Z,15.77
2023-03-19T16:28:47.931Z,15.73
2023-03-19T16:31:23.769Z,15.52
2023-03-19T16:33:52.708Z,15.39
2023-03-19T16:36:20.465Z,15.26
2023-03-19T16:38:57.715Z,15.10
2023-03-19T16:41:36.813Z,14.90
2023-03-19T16:51:17.907Z,14.52
2023-03-19T16:53:45.787Z,14.41
2023-03-19T16:56:14.043Z,14.30
2023-03-19T16:58:43.277Z,14.23
2023-03-19T17:01:19.489Z,14.12
2023-03-19T17:03:47.155Z,14.02
2023-03-19T17:06:14.921Z,13.90
2023-03-19T17:08:42.334Z,13.76
2023-03-19T17:11:31.953Z,13.66
2023-03-19T17:13:59.814Z,13.54
2023-03-19T17:16:27.817Z,13.46
2023-03-19T17:18:55.205Z,13.40
2023-03-19T17:21:25.507Z,13.27
2023-03-19T17:23:52.672Z,13.23
2023-03-19T17:26:21.998Z,13.15
2023-03-19T17:28:49.691Z,13.11
2023-03-19T17:31:31.734Z,12.99
2023-03-19T17:34:13.375Z,12.90
2023-03-19T17:36:40.353Z,12.89
2023-03-19T17:39:07.874Z,12.82
2023-03-19T17:41:37.618Z,12.80
2023-03-19T17:44:06.552Z,12.73
2023-03-19T17:46:37.877Z,12.67
2023-03-19T17:49:06.500Z,12.61
2023-03-19T17:51:33.459Z,12.61
2023-03-19T17:54:00.968Z,12.58
2023-03-19T17:56:33.128Z,12.50
2023-03-19T17:59:01.168Z,12.46
2023-03-19T18:01:28.514Z,12.45
2023-03-19T18:03:56.593Z,12.46
2023-03-19T18:06:29.601Z,12.48
2023-03-19T18:09:01.519Z,12.46
2023-03-19T18:11:37.106Z,12.40
2023-03-19T18:14:03.886Z,12.37
2023-03-19T18:16:32.197Z,12.37
2023-03-19T18:19:01.526Z,12.33
2023-03-19T18:26:29.421Z,12.20
2023-03-19T18:45:36.078Z,12.02
2023-03-19T18:49:25.645Z,11.95
2023-03-19T18:52:02.727Z,11.98
2023-03-19T18:54:32.957Z,12.01
2023-03-19T18:57:01.249Z,12.00
2023-03-19T18:59:33.187Z,11.99
2023-03-19T19:02:19.831Z,11.95
2023-03-19T19:04:46.829Z,11.89
2023-03-19T19:07:15.043Z,11.81
2023-03-19T19:09:42.302Z,11.80
2023-03-19T19:12:13.485Z,11.80
2023-03-19T19:14:40.469Z,11.82
2023-03-19T19:17:13.629Z,11.82
2023-03-19T19:19:42.863Z,11.78
2023-03-19T19:22:19.322Z,11.80
2023-03-19T19:24:46.259Z,11.80
2023-03-19T19:27:16.673Z,11.80
2023-03-19T19:29:43.574Z,11.79
2023-03-19T19:32:19.990Z,11.80
2023-03-19T19:34:46.742Z,11.83
2023-03-19T19:37:17.348Z,11.86
2023-03-19T19:39:45.002Z,11.87
2023-03-19T19:42:13.317Z,11.85
2023-03-19T19:44:40.792Z,11.79
2023-03-19T19:47:23.843Z,11.77
2023-03-19T19:50:26.560Z,11.79
2023-03-19T20:23:07.683Z,11.65
2023-03-19T20:46:41.682Z,11.66
2023-03-19T21:11:17.988Z,11.66
2023-03-19T21:22:59.652Z,11.58
2023-03-19T21:31:25.517Z,11.62
2023-03-19T21:46:10.907Z,11.50
2023-03-19T21:49:44.481Z,11.55
2023-03-19T21:53:12.916Z,11.58
2023-03-19T21:56:05.931Z,11.59
2023-03-19T21:59:00.289Z,11.59
2023-03-19T22:02:38.635Z,11.56
2023-03-19T22:06:12.944Z,11.42
2023-03-19T22:09:12.691Z,11.27
2023-03-19T22:11:46.098Z,11.30
2023-03-19T22:14:23.028Z,11.27
2023-03-19T22:17:01.415Z,11.23
2023-03-19T22:19:49.482Z,11.23
2023-03-19T22:22:45.480Z,11.23
2023-03-19T22:25:42.987Z,11.23
2023-03-19T22:29:06.515Z,11.21
2023-03-19T22:35:48.179Z,11.10
2023-03-19T22:42:52.904Z,11.10
2023-03-19T22:53:00.804Z,10.99
2023-03-19T22:56:19.117Z,10.91
2023-03-19T22:59:21.912Z,10.93
2023-03-19T23:02:24.056Z,10.94
2023-03-19T23:05:06.167Z,10.93
2023-03-19T23:07:48.232Z,10.96
2023-03-19T23:10:39.120Z,10.99
2023-03-19T23:14:26.327Z,11.06
2023-03-19T23:16:37.092Z,10.99
2023-03-19T23:19:15.679Z,11.03
2023-03-19T23:22:45.809Z,10.98
2023-03-19T23:25:44.792Z,10.72
2023-03-19T23:28:52.702Z,10.73
2023-03-19T23:35:59.123Z,10.64
2023-03-19T23:38:37.105Z,10.63
2023-03-19T23:41:40.290Z,10.56
2023-03-19T23:44:36.312Z,10.51
2023-03-19T23:51:46.603Z,10.39
